カシュガル の空港の天気 - METARとTAF

カシュガル空港 ( ZWSH / KHG ) - 中華人民共和国 新疆ウイグル自治区カシュガル市
飛行場実況気象(Metar)
観測時間09/22 05:00 CST (09/21 21:00 UTC)
風向・風速北北西 3m/s
視程10km以上
天気現象
なし
気温15℃
湿度63%
気圧1016hPa
METARZWSH 212100Z 33003MPS CAVOK 15/08 Q1016 NOSIG
過去の天気等 Google飛行場航空写真 Wunderground天気予報

過去48時間のMETAR

飛行場予報(TAF)
発表時間: 9/21 23:08 CST (9/21 15:08 UTC)
予報対象時間: 22日2時 CST ~ 23日2時 CST
風向・風速北北西 4m/s
視程10km以上
全天の4割程度の雲 雲底高度 1,220m
22日13時 CST ~ 22日14時 CST に徐々に
風向・風速東南東 4m/s
TAF ZWSH 211508Z 2118/2218 33004MPS 9999 SCT040 TX22/2209Z TN14/2200Z
BECMG 2205/2206 12004MPS